createdAt,value
2017-04-14T12:35:07.281Z,100419.05
2017-04-14T12:37:19.965Z,100417.72
2017-04-14T12:38:20.368Z,100421.62
2017-04-14T12:39:20.437Z,100427.16
2017-04-14T12:40:20.551Z,100419.77
2017-04-14T12:41:20.643Z,100424.78
2017-04-14T12:42:20.722Z,100422.31
2017-04-14T12:43:20.942Z,100425.94
2017-04-14T12:44:21.421Z,100420.70
2017-04-14T12:45:21.624Z,100413.69
2017-04-14T12:46:22.107Z,100426.13
2017-04-14T12:47:22.301Z,100429.33
2017-04-14T12:48:22.337Z,100424.02
2017-04-14T12:49:22.376Z,100423.59
2017-04-14T12:50:23.120Z,100419.21
2017-04-14T12:51:23.267Z,100423.06
2017-04-14T12:52:23.375Z,100415.16
2017-04-14T12:53:23.983Z,100413.81
2017-04-14T12:54:25.651Z,100410.49
2017-04-14T12:55:25.758Z,100416.48
2017-04-14T12:56:25.906Z,100410.69
2017-04-14T12:57:26.441Z,100419.31
2017-04-14T12:58:26.495Z,100411.31
2017-04-14T12:59:26.553Z,100411.94
2017-04-14T13:00:26.609Z,100410.39
2017-04-14T13:01:26.717Z,100408.35
2017-04-14T13:02:26.784Z,100412.80
2017-04-14T13:03:26.832Z,100414.64
2017-04-14T13:04:26.936Z,100410.27
2017-04-14T13:05:26.989Z,100415.14
2017-04-14T13:06:27.134Z,100409.93
2017-04-14T13:07:27.265Z,100411.11
2017-04-14T13:08:27.327Z,100413.59
2017-04-14T13:09:28.095Z,100413.22
2017-04-14T13:10:28.244Z,100408.64
2017-04-14T13:11:28.538Z,100408.50
2017-04-14T13:15:10.872Z,100403.98
2017-04-14T13:16:16.889Z,100408.19
2017-04-14T13:17:22.698Z,100406.45
2017-04-14T13:18:28.743Z,100402.23
2017-04-14T13:19:35.522Z,100403.94
2017-04-14T13:20:41.066Z,100401.96
2017-04-14T13:21:46.832Z,100400.73
2017-04-14T13:22:53.582Z,100400.43
2017-04-14T13:23:59.147Z,100400.38
2017-04-14T13:25:04.512Z,100396.13
2017-04-14T13:26:09.747Z,100390.50
2017-04-14T13:27:14.760Z,100396.37
2017-04-14T13:28:17.582Z,100398.25
2017-04-14T13:29:24.568Z,100390.92
2017-04-14T13:30:29.774Z,100394.45
2017-04-14T13:31:30.772Z,100391.23
2017-04-14T13:32:36.502Z,100398.05
2017-04-14T13:33:43.315Z,100393.58
2017-04-14T13:34:46.475Z,100397.34
2017-04-14T13:35:53.405Z,100390.48
2017-04-14T13:36:59.998Z,100388.58
2017-04-14T13:38:08.804Z,100390.09
2017-04-14T13:39:10.833Z,100382.36
2017-04-14T13:40:12.857Z,100387.21
2017-04-14T13:41:15.256Z,100394.55
2017-04-14T13:42:22.939Z,100393.73
2017-04-14T13:43:27.412Z,100392.91
2017-04-14T13:44:28.547Z,100391.52
2017-04-14T13:45:30.271Z,100391.59
2017-04-14T13:46:31.687Z,100389.35
2017-04-14T13:47:33.337Z,100394.09
2017-04-14T13:48:34.749Z,100386.55
2017-04-14T13:49:36.185Z,100382.64
2017-04-14T13:50:37.449Z,100386.59
2017-04-14T13:51:38.721Z,100383.72
2017-04-14T13:52:39.721Z,100383.09
2017-04-14T13:53:40.985Z,100378.95
2017-04-14T13:54:42.263Z,100381.84
2017-04-14T13:55:43.618Z,100379.55
2017-04-14T13:56:45.145Z,100379.84
2017-04-14T13:57:46.581Z,100379.61
2017-04-14T13:58:47.818Z,100376.78
2017-04-14T13:59:49.172Z,100381.03
2017-04-14T14:00:50.708Z,100387.13
2017-04-14T14:01:52.261Z,100381.55
2017-04-14T14:02:53.417Z,100386.00
2017-04-14T14:03:54.536Z,100380.57
2017-04-14T14:04:56.198Z,100376.88
2017-04-14T14:05:57.313Z,100381.23
2017-04-14T14:06:58.463Z,100379.98
2017-04-14T14:07:59.405Z,100376.38
2017-04-14T14:09:00.707Z,100373.19
2017-04-14T14:10:01.848Z,100374.20
2017-04-14T14:11:02.997Z,100378.72
2017-04-14T14:12:04.161Z,100376.02
2017-04-14T14:13:05.305Z,100377.20
2017-04-14T14:14:06.849Z,100378.30
2017-04-14T14:15:08.362Z,100379.70
2017-04-14T14:16:09.332Z,100376.25
2017-04-14T14:17:10.589Z,100375.66
2017-04-14T14:18:12.837Z,100373.62
2017-04-14T14:19:14.534Z,100374.25
2017-04-14T14:20:15.763Z,100368.98
2017-04-14T14:21:16.907Z,100370.09
2017-04-14T14:22:19.889Z,100361.97
2017-04-14T14:23:23.187Z,100366.54
2017-04-14T14:24:26.435Z,100359.75
2017-04-14T14:25:30.493Z,100368.97
2017-04-14T14:26:34.122Z,100370.16
2017-04-14T14:27:37.498Z,100361.86
2017-04-14T14:28:41.284Z,100361.86
2017-04-14T14:29:44.657Z,100362.81
2017-04-14T14:30:47.986Z,100361.23
2017-04-14T14:31:51.222Z,100364.33
2017-04-14T14:32:54.653Z,100364.59
2017-04-14T14:33:58.121Z,100357.84
2017-04-14T14:35:00.413Z,100363.09
2017-04-14T14:36:02.122Z,100358.80
2017-04-14T14:37:03.055Z,100358.97
2017-04-14T14:38:04.199Z,100361.77
2017-04-14T14:39:05.746Z,100363.19
2017-04-14T14:40:06.816Z,100356.34
2017-04-14T14:41:08.005Z,100353.81
2017-04-14T14:42:09.158Z,100358.48
2017-04-14T14:43:10.423Z,100356.02
2017-04-14T14:44:12.297Z,100356.22
2017-04-14T14:45:13.755Z,100362.92
2017-04-14T14:46:15.258Z,100357.13
2017-04-14T14:47:16.689Z,100362.08
2017-04-14T14:48:17.966Z,100354.30
2017-04-14T14:49:19.345Z,100360.49
2017-04-14T14:50:20.657Z,100361.64
2017-04-14T14:51:22.096Z,100358.38
2017-04-14T14:52:23.222Z,100361.45
2017-04-14T14:53:24.334Z,100357.89
2017-04-14T14:54:25.433Z,100360.59
2017-04-14T14:55:26.737Z,100352.69
2017-04-14T14:56:28.170Z,100353.45
2017-04-14T14:57:29.293Z,100351.99
2017-04-14T14:58:30.505Z,100351.91
2017-04-14T14:59:31.786Z,100350.61
2017-04-14T15:00:33.433Z,100349.73
2017-04-14T15:01:34.608Z,100357.92
2017-04-14T15:02:35.805Z,100349.75
2017-04-14T15:03:36.917Z,100358.74
2017-04-14T15:04:38.096Z,100354.17
2017-04-14T15:05:39.240Z,100354.96
2017-04-14T15:06:40.240Z,100352.03
2017-04-14T15:07:41.361Z,100351.96
2017-04-14T15:08:42.498Z,100353.80
2017-04-14T15:09:43.629Z,100347.69
2017-04-14T15:10:44.779Z,100349.42
2017-04-14T15:11:45.915Z,100347.65
2017-04-14T15:12:47.099Z,100348.02
2017-04-14T15:13:48.474Z,100345.02
2017-04-14T15:14:49.781Z,100341.33
2017-04-14T15:15:53.883Z,100348.08
2017-04-14T15:16:55.045Z,100345.78
2017-04-14T15:17:56.252Z,100343.64
2017-04-14T15:18:57.377Z,100347.30
2017-04-14T15:19:59.966Z,100349.50
2017-04-14T15:21:02.159Z,100345.16
2017-04-14T15:22:03.669Z,100347.75
2017-04-14T15:23:06.400Z,100344.59
2017-04-14T15:24:13.317Z,100343.31
2017-04-14T15:25:34.919Z,100347.66
2017-04-14T15:26:41.877Z,100346.96
2017-04-14T15:27:50.009Z,100345.81
2017-04-14T15:29:00.256Z,100342.16
2017-04-14T15:30:06.929Z,100342.13
2017-04-14T15:31:09.675Z,100343.94
2017-04-14T15:32:13.256Z,100347.39
2017-04-14T15:33:16.859Z,100342.45
2017-04-14T15:34:21.562Z,100348.58
2017-04-14T15:35:32.369Z,100338.53
2017-04-14T15:36:42.251Z,100343.80
2017-04-14T15:37:49.322Z,100340.77
2017-04-14T15:39:05.176Z,100334.58
2017-04-14T15:40:14.908Z,100341.20
2017-04-14T15:41:23.087Z,100339.13
2017-04-14T15:42:30.480Z,100338.27
2017-04-14T15:43:43.112Z,100336.26
2017-04-14T15:44:54.553Z,100338.43
2017-04-14T15:46:07.938Z,100341.16
2017-04-14T15:47:16.039Z,100328.95
2017-04-14T15:48:29.360Z,100333.89
2017-04-14T15:49:39.236Z,100333.59
2017-04-14T15:50:50.831Z,100333.95
2017-04-14T15:51:57.579Z,100332.93
2017-04-14T15:53:05.530Z,100325.03
2017-04-14T15:54:18.185Z,100336.84
2017-04-14T15:55:30.261Z,100334.74
2017-04-14T15:56:39.912Z,100335.90
2017-04-14T15:57:53.912Z,100337.22
2017-04-14T15:59:02.335Z,100340.77
2017-04-14T16:00:16.597Z,100328.92
2017-04-14T16:01:23.036Z,100333.70
2017-04-14T16:02:27.170Z,100332.74
2017-04-14T16:03:37.908Z,100336.56
2017-04-14T16:04:51.318Z,100332.68
2017-04-14T16:05:55.522Z,100337.65
2017-04-14T16:06:58.493Z,100337.48
2017-04-14T16:08:00.369Z,100331.37
2017-04-14T16:09:03.555Z,100337.48
2017-04-14T16:10:05.139Z,100334.79
2017-04-14T16:11:10.015Z,100338.55
2017-04-14T16:12:12.934Z,100331.11
2017-04-14T16:13:26.901Z,100335.25
2017-04-14T16:14:37.476Z,100335.22
2017-04-14T16:15:43.589Z,100334.79
2017-04-14T16:16:52.032Z,100332.25
2017-04-14T16:18:00.160Z,100335.91
2017-04-14T16:19:06.209Z,100331.99
2017-04-14T16:20:18.477Z,100332.52
2017-04-14T16:21:26.603Z,100331.83
2017-04-14T16:22:38.419Z,100341.87
2017-04-14T16:23:45.402Z,100329.98
2017-04-14T16:24:52.004Z,100340.72
2017-04-14T16:25:58.932Z,100335.32
2017-04-14T16:27:05.216Z,100337.78
2017-04-14T16:28:12.289Z,100333.58
2017-04-14T16:29:22.348Z,100337.26
2017-04-14T16:30:29.493Z,100329.92
2017-04-14T16:31:37.252Z,100339.17
2017-04-14T16:32:45.431Z,100345.91
2017-04-14T16:33:51.224Z,100344.99
2017-04-14T16:34:58.717Z,100342.27
2017-04-14T16:36:04.421Z,100341.23
2017-04-14T16:37:11.017Z,100343.64
2017-04-14T16:38:13.467Z,100339.13
2017-04-14T16:39:15.135Z,100338.61
2017-04-14T16:40:16.725Z,100339.27
2017-04-14T16:41:19.343Z,100341.77
2017-04-14T16:42:21.519Z,100338.14
2017-04-14T16:43:24.296Z,100342.78
2017-04-14T16:44:27.182Z,100336.37
2017-04-14T16:45:29.849Z,100338.53
2017-04-14T16:46:32.117Z,100342.88
2017-04-14T16:47:39.469Z,100342.52
2017-04-14T16:48:42.309Z,100343.17
2017-04-14T16:49:54.666Z,100335.61
2017-04-14T16:51:03.756Z,100339.00
2017-04-14T16:52:12.799Z,100341.17
2017-04-14T16:53:18.911Z,100334.22
2017-04-14T16:54:30.878Z,100326.72
2017-04-14T16:55:45.065Z,100332.51
2017-04-14T16:56:54.102Z,100339.48
2017-04-14T16:58:10.304Z,100338.59
2017-04-14T16:59:15.076Z,100342.91
2017-04-14T17:00:25.118Z,100337.12
2017-04-14T17:01:33.071Z,100338.56
2017-04-14T17:02:47.518Z,100336.82
2017-04-14T17:03:58.842Z,100331.38
2017-04-14T17:05:12.293Z,100339.12
2017-04-14T17:06:23.217Z,100334.05
2017-04-14T17:07:35.281Z,100340.36
2017-04-14T17:08:44.515Z,100338.68
2017-04-14T17:09:52.693Z,100336.84
2017-04-14T17:11:02.676Z,100338.34
2017-04-14T17:12:12.330Z,100339.83
2017-04-14T17:13:19.731Z,100339.73
2017-04-14T17:14:26.017Z,100344.20
2017-04-14T17:15:41.290Z,100339.76
2017-04-14T17:16:48.966Z,100337.72
2017-04-14T17:18:04.078Z,100342.55
2017-04-14T17:19:13.157Z,100341.53
2017-04-14T17:20:21.437Z,100346.50
2017-04-14T17:21:30.219Z,100344.05
2017-04-14T17:22:37.046Z,100348.61
2017-04-14T17:23:41.035Z,100341.42
2017-04-14T17:24:43.165Z,100342.77
2017-04-14T17:25:46.398Z,100348.00
2017-04-14T17:26:49.414Z,100339.34
2017-04-14T17:27:53.599Z,100349.05
2017-04-14T17:28:59.322Z,100349.59
2017-04-14T17:30:06.162Z,100348.08
2017-04-14T17:31:10.038Z,100351.20
2017-04-14T17:32:12.844Z,100350.34
2017-04-14T17:33:14.465Z,100351.20
2017-04-14T17:34:15.848Z,100349.52
2017-04-14T17:35:16.971Z,100347.59
2017-04-14T17:36:18.173Z,100350.06
2017-04-14T17:37:19.301Z,100350.28
2017-04-14T17:38:20.422Z,100351.98
2017-04-14T17:39:21.609Z,100353.06
2017-04-14T17:40:22.924Z,100353.58
2017-04-14T17:41:23.899Z,100357.20
2017-04-14T17:42:25.069Z,100352.39
2017-04-14T17:43:26.436Z,100360.16
2017-04-14T17:44:27.776Z,100357.04
2017-04-14T17:45:28.875Z,100355.33
2017-04-14T17:46:30.068Z,100356.03
2017-04-14T17:47:31.258Z,100359.39
2017-04-14T17:48:33.103Z,100358.23
2017-04-14T17:49:35.297Z,100357.08
2017-04-14T17:50:37.579Z,100357.50
2017-04-14T17:51:38.821Z,100354.75
2017-04-14T17:52:40.095Z,100355.18
2017-04-14T17:53:41.307Z,100355.36
2017-04-14T17:54:42.505Z,100360.56
2017-04-14T17:55:43.966Z,100358.12
2017-04-14T17:56:45.893Z,100358.18
2017-04-14T17:57:47.060Z,100353.44
2017-04-14T17:58:48.343Z,100358.30
2017-04-14T17:59:49.631Z,100361.55
2017-04-14T18:00:50.836Z,100364.45
2017-04-14T18:01:52.311Z,100361.23
2017-04-14T18:02:53.821Z,100360.47
2017-04-14T18:03:56.554Z,100361.14
2017-04-14T18:04:57.544Z,100360.66
2017-04-14T18:05:59.026Z,100360.96
2017-04-14T18:07:05.932Z,100364.62
2017-04-14T18:08:09.021Z,100362.19
2017-04-14T18:09:10.118Z,100365.06
2017-04-14T18:10:11.301Z,100369.03
2017-04-14T18:11:12.782Z,100363.87
2017-04-14T18:12:13.978Z,100356.47
2017-04-14T18:13:24.345Z,100365.16
2017-04-14T18:14:28.111Z,100365.21
2017-04-14T18:15:30.432Z,100364.51
2017-04-14T18:16:36.029Z,100367.14
2017-04-14T18:17:38.098Z,100368.30
2017-04-14T18:18:40.825Z,100368.33
2017-04-14T18:19:43.227Z,100378.23
2017-04-14T18:20:47.191Z,100375.69
2017-04-14T18:21:49.143Z,100372.94
2017-04-14T18:22:53.011Z,100372.11
2017-04-14T18:24:00.637Z,100376.95
2017-04-14T18:25:05.946Z,100379.57
2017-04-14T18:26:08.838Z,100377.77
2017-04-14T18:27:10.118Z,100375.63
2017-04-14T18:28:12.831Z,100379.72
2017-04-14T18:29:14.085Z,100382.75
2017-04-14T18:30:15.230Z,100379.27
2017-04-14T18:31:16.186Z,100382.05
2017-04-14T18:32:17.335Z,100382.02
2017-04-14T18:33:18.464Z,100384.27
2017-04-14T18:34:19.408Z,100385.67
2017-04-14T18:35:20.492Z,100384.27
2017-04-14T18:36:21.567Z,100388.95
2017-04-14T18:37:22.745Z,100385.44
2017-04-14T18:38:24.058Z,100389.56
2017-04-14T18:39:25.007Z,100383.30
2017-04-14T18:40:26.348Z,100384.61
2017-04-14T18:41:27.537Z,100386.02
2017-04-14T18:42:28.764Z,100390.88
2017-04-14T18:43:29.910Z,100390.88
2017-04-14T18:44:31.231Z,100396.70
2017-04-14T18:45:32.709Z,100391.14
2017-04-14T18:46:34.053Z,100400.11
2017-04-14T18:47:35.849Z,100396.00
2017-04-14T18:48:37.074Z,100400.37
2017-04-14T18:49:38.188Z,100400.28
2017-04-14T18:50:39.733Z,100406.73
2017-04-14T18:51:41.092Z,100403.22
2017-04-14T18:52:42.465Z,100406.58
2017-04-14T18:53:43.985Z,100400.48
2017-04-14T18:54:45.241Z,100404.20
2017-04-14T18:55:46.736Z,100405.03
2017-04-14T18:56:47.988Z,100408.23
2017-04-14T18:57:49.286Z,100407.33
2017-04-14T18:58:50.792Z,100400.81
2017-04-14T18:59:51.803Z,100407.84
2017-04-14T19:00:53.555Z,100409.33
2017-04-14T19:01:54.777Z,100407.35
2017-04-14T19:02:57.089Z,100407.38
2017-04-14T19:03:58.057Z,100407.01
2017-04-14T19:04:59.720Z,100417.48
2017-04-14T19:06:01.208Z,100409.03
2017-04-14T19:07:02.856Z,100407.44
2017-04-14T19:08:04.067Z,100416.63
2017-04-14T19:09:06.197Z,100409.58
2017-04-14T19:10:14.545Z,100412.20
2017-04-14T19:11:17.550Z,100413.49
2017-04-14T19:12:21.586Z,100409.24
2017-04-14T19:13:24.526Z,100418.98
2017-04-14T19:14:27.098Z,100417.02
2017-04-14T19:15:32.196Z,100424.52
2017-04-14T19:16:36.296Z,100414.90
2017-04-14T19:17:40.247Z,100415.16
2017-04-14T19:18:44.979Z,100419.38
2017-04-14T19:19:48.856Z,100411.61
2017-04-14T19:20:54.712Z,100416.90
2017-04-14T19:21:58.837Z,100413.30
2017-04-14T19:23:05.166Z,100425.20
2017-04-14T19:24:15.093Z,100418.87
2017-04-14T19:25:19.652Z,100419.13
2017-04-14T19:26:24.528Z,100421.09
2017-04-14T19:27:32.570Z,100421.32
2017-04-14T19:28:36.886Z,100418.41
2017-04-14T19:29:40.973Z,100423.30
2017-04-14T19:30:45.920Z,100413.95
2017-04-14T19:31:55.191Z,100428.15
2017-04-14T19:33:10.921Z,100423.35
2017-04-14T19:34:12.176Z,100424.52
2017-04-14T19:35:18.128Z,100426.35
2017-04-14T19:36:22.462Z,100425.15
2017-04-14T19:37:25.229Z,100428.75
2017-04-14T19:38:27.659Z,100422.59
2017-04-14T19:39:30.813Z,100424.64
2017-04-14T19:40:34.962Z,100426.47
2017-04-14T19:41:38.551Z,100426.35
2017-04-14T19:42:41.086Z,100425.15
2017-04-14T19:43:47.813Z,100427.06
2017-04-14T19:44:54.029Z,100422.36
2017-04-14T19:46:05.206Z,100422.81
2017-04-14T19:47:09.450Z,100423.52
2017-04-14T19:48:11.738Z,100419.09
2017-04-14T19:49:15.123Z,100419.95
2017-04-14T19:50:20.501Z,100414.84
2017-04-14T19:51:26.024Z,100414.56
2017-04-14T19:52:32.888Z,100411.70
2017-04-14T19:53:35.998Z,100418.22
2017-04-14T19:54:41.332Z,100422.09
2017-04-14T19:55:46.234Z,100420.84
2017-04-14T19:56:51.352Z,100422.90
2017-04-14T19:57:55.193Z,100420.73
2017-04-14T19:59:02.929Z,100423.05
2017-04-14T20:00:07.549Z,100419.02
2017-04-14T20:01:10.762Z,100417.90
2017-04-14T20:02:15.396Z,100418.27
2017-04-14T20:03:21.005Z,100414.77
2017-04-14T20:04:23.352Z,100421.36
2017-04-14T20:05:28.269Z,100418.24
2017-04-14T20:06:33.519Z,100420.16
2017-04-14T20:07:36.663Z,100419.64
2017-04-14T20:08:38.999Z,100407.48
2017-04-14T20:09:42.392Z,100409.25
2017-04-14T20:10:45.118Z,100410.70
2017-04-14T20:11:49.592Z,100415.91
2017-04-14T20:12:52.514Z,100412.48
2017-04-14T20:13:58.427Z,100413.79
2017-04-14T20:15:02.450Z,100413.64
2017-04-14T20:16:04.992Z,100412.33
2017-04-14T20:17:08.047Z,100414.53
2017-04-14T20:18:10.085Z,100415.09
2017-04-14T20:19:14.244Z,100413.45
2017-04-14T20:20:21.137Z,100407.34
2017-04-14T20:21:26.875Z,100413.05
2017-04-14T20:22:34.410Z,100418.16
2017-04-14T20:23:50.905Z,100424.14
2017-04-14T20:24:57.780Z,100421.18
2017-04-14T20:26:04.584Z,100417.23
2017-04-14T20:27:10.802Z,100415.44
2017-04-14T20:28:16.225Z,100413.70
2017-04-14T20:29:21.785Z,100412.61
2017-04-14T20:30:27.587Z,100416.98
2017-04-14T20:31:35.073Z,100411.67
2017-04-14T20:32:40.617Z,100414.81
2017-04-14T20:33:44.875Z,100411.89
2017-04-14T20:34:51.783Z,100407.98
2017-04-14T20:36:05.276Z,100412.78
2017-04-14T20:37:13.773Z,100414.09
2017-04-14T20:38:21.036Z,100411.09
2017-04-14T20:39:26.345Z,100407.27
2017-04-14T20:40:28.959Z,100410.27
2017-04-14T20:41:31.043Z,100410.75
2017-04-14T20:42:33.670Z,100402.92
2017-04-14T20:43:36.151Z,100404.75
2017-04-14T20:44:41.060Z,100408.17
2017-04-14T20:45:46.181Z,100409.60
2017-04-14T20:46:52.441Z,100402.98
2017-04-14T20:47:54.524Z,100402.20
2017-04-14T20:48:58.629Z,100405.11
2017-04-14T20:50:02.159Z,100403.00
2017-04-14T20:51:06.421Z,100407.55
2017-04-14T20:52:09.634Z,100405.38
2017-04-14T20:53:12.413Z,100405.41
2017-04-14T20:54:14.127Z,100405.56
2017-04-14T20:55:16.892Z,100410.03
2017-04-14T20:56:20.946Z,100412.84
2017-04-14T20:57:25.028Z,100414.83
2017-04-14T20:58:31.124Z,100412.50
2017-04-14T20:59:51.068Z,100411.91
2017-04-14T21:00:57.254Z,100411.66
2017-04-14T21:02:00.774Z,100411.83
2017-04-14T21:03:02.169Z,100414.00
2017-04-14T21:04:09.170Z,100414.61
2017-04-14T21:05:14.232Z,100416.33
2017-04-14T21:06:17.947Z,100416.56
2017-04-14T21:07:21.316Z,100415.58
2017-04-14T21:08:23.982Z,100414.23
2017-04-14T21:09:27.559Z,100404.48
2017-04-14T21:10:31.050Z,100406.01
2017-04-14T21:11:34.531Z,100411.39
2017-04-14T21:12:37.348Z,100407.56
2017-04-14T21:13:40.426Z,100409.20
2017-04-14T21:14:48.197Z,100409.77
2017-04-14T21:15:50.065Z,100410.51
2017-04-14T21:16:58.650Z,100406.23
2017-04-14T21:17:59.906Z,100408.07
2017-04-14T21:19:06.026Z,100406.84
2017-04-14T21:20:08.936Z,100408.05
2017-04-14T21:21:10.081Z,100407.89
2017-04-14T21:22:11.300Z,100410.03
2017-04-14T21:23:12.323Z,100403.07
2017-04-14T21:24:13.965Z,100402.64
2017-04-14T21:25:15.414Z,100402.30
2017-04-14T21:26:16.748Z,100407.46
2017-04-14T21:27:20.917Z,100408.00
2017-04-14T21:28:31.296Z,100409.74
2017-04-14T21:29:34.456Z,100404.97
2017-04-14T21:30:37.585Z,100403.84
2017-04-14T21:31:38.653Z,100404.79
2017-04-14T21:32:39.894Z,100404.70
2017-04-14T21:33:41.102Z,100405.45
2017-04-14T21:34:42.283Z,100402.34
2017-04-14T21:35:43.437Z,100402.67
2017-04-14T21:36:44.610Z,100402.64
2017-04-14T21:37:45.845Z,100397.98
2017-04-14T21:38:47.015Z,100400.27
2017-04-14T21:39:48.227Z,100400.74
2017-04-14T21:40:49.545Z,100393.78
2017-04-14T21:41:50.902Z,100394.94
2017-04-14T21:42:52.131Z,100397.83
2017-04-14T21:43:53.274Z,100395.88
2017-04-14T21:44:54.547Z,100404.11
2017-04-14T21:45:55.715Z,100400.27
2017-04-14T21:46:56.756Z,100400.10
2017-04-14T21:47:57.930Z,100401.33
2017-04-14T21:48:59.254Z,100399.08
2017-04-14T21:50:00.726Z,100399.97
2017-04-14T21:51:02.075Z,100398.97
2017-04-14T21:52:03.247Z,100401.20
2017-04-14T21:53:04.481Z,100400.02
2017-04-14T21:54:05.656Z,100391.80
2017-04-14T21:55:06.971Z,100391.00
2017-04-14T21:56:08.305Z,100396.67
2017-04-14T21:57:09.319Z,100393.59
2017-04-14T21:58:10.598Z,100393.78
2017-04-14T21:59:11.752Z,100390.83
2017-04-14T22:00:12.968Z,100390.86
2017-04-14T22:01:14.683Z,100389.13
2017-04-14T22:02:16.121Z,100391.83
2017-04-14T22:03:17.279Z,100389.92
2017-04-14T22:04:18.610Z,100380.74
2017-04-14T22:05:19.764Z,100391.38
2017-04-14T22:06:36.301Z,100390.27
2017-04-14T22:07:37.423Z,100387.03
2017-04-14T22:08:39.006Z,100387.03
2017-04-14T22:09:40.298Z,100388.38
2017-04-14T22:10:41.478Z,100390.09
2017-04-14T22:11:42.425Z,100385.98
2017-04-14T22:12:43.360Z,100388.40
2017-04-14T22:13:44.343Z,100389.31
2017-04-14T22:14:45.573Z,100387.60
2017-04-14T22:15:46.706Z,100393.14
2017-04-14T22:16:48.178Z,100388.66
2017-04-14T22:17:49.312Z,100391.94
2017-04-14T22:18:50.521Z,100384.84
2017-04-14T22:19:51.794Z,100386.04
2017-04-14T22:20:52.979Z,100385.67
2017-04-14T22:21:54.077Z,100387.94
2017-04-14T22:22:55.038Z,100387.01
2017-04-14T22:23:56.267Z,100390.14
2017-04-14T22:24:57.511Z,100389.61
2017-04-14T22:25:58.652Z,100394.32
2017-04-14T22:26:59.768Z,100390.41
2017-04-14T22:28:00.948Z,100392.87
2017-04-14T22:29:02.068Z,100388.59
2017-04-14T22:30:03.311Z,100385.62
2017-04-14T22:31:04.319Z,100387.30
2017-04-14T22:32:05.329Z,100386.37
2017-04-14T22:33:06.254Z,100385.11
2017-04-14T22:34:07.385Z,100387.58
2017-04-14T22:35:08.608Z,100385.30
2017-04-14T22:36:09.649Z,100382.20
2017-04-14T22:37:11.107Z,100379.94
2017-04-14T22:38:12.078Z,100381.20
2017-04-14T22:39:13.547Z,100383.42
2017-04-14T22:40:15.140Z,100382.54
2017-04-14T22:41:16.584Z,100386.18
2017-04-14T22:42:17.840Z,100381.50
2017-04-14T22:43:19.415Z,100385.59
2017-04-14T22:44:20.730Z,100378.15
2017-04-14T22:45:22.058Z,100390.25
2017-04-14T22:46:23.176Z,100384.89
2017-04-14T22:47:24.678Z,100382.78
2017-04-14T22:48:25.792Z,100383.83
2017-04-14T22:49:26.928Z,100376.81
2017-04-14T22:50:28.159Z,100385.55
2017-04-14T22:51:29.394Z,100391.24
2017-04-14T22:52:30.540Z,100386.59
2017-04-14T22:53:31.668Z,100384.36
2017-04-14T22:54:32.808Z,100389.37
2017-04-14T22:55:34.224Z,100387.95
2017-04-14T22:56:35.719Z,100394.05
2017-04-14T22:57:37.285Z,100387.78
2017-04-14T22:58:38.561Z,100386.31
2017-04-14T22:59:40.054Z,100384.09
2017-04-14T23:00:42.154Z,100382.78
2017-04-14T23:01:43.580Z,100375.72
2017-04-14T23:02:45.031Z,100382.54
2017-04-14T23:03:46.988Z,100380.45
2017-04-14T23:04:48.112Z,100374.75
2017-04-14T23:05:49.552Z,100376.27
2017-04-14T23:06:50.956Z,100377.67
2017-04-14T23:07:52.179Z,100387.95
2017-04-14T23:08:53.526Z,100384.23
2017-04-14T23:09:55.084Z,100374.08
2017-04-14T23:10:56.844Z,100379.30
2017-04-14T23:11:59.234Z,100377.97
2017-04-14T23:13:00.407Z,100381.12
2017-04-14T23:14:01.448Z,100374.19
2017-04-14T23:15:03.072Z,100377.88
2017-04-14T23:16:04.390Z,100379.73
2017-04-14T23:17:05.559Z,100374.94
2017-04-14T23:18:07.079Z,100372.16
2017-04-14T23:19:08.230Z,100378.90
2017-04-14T23:20:09.620Z,100369.42
2017-04-14T23:21:10.684Z,100370.31
2017-04-14T23:22:11.831Z,100369.16
2017-04-14T23:23:13.487Z,100368.63
2017-04-14T23:24:15.179Z,100365.44
2017-04-14T23:25:16.394Z,100357.78
2017-04-14T23:26:17.634Z,100358.48
2017-04-14T23:27:18.795Z,100357.58
2017-04-14T23:28:20.345Z,100365.78
2017-04-14T23:29:21.540Z,100362.81
2017-04-14T23:30:22.993Z,100364.74
2017-04-14T23:31:24.148Z,100360.38
2017-04-14T23:32:25.308Z,100362.25
2017-04-14T23:33:26.557Z,100361.66
2017-04-14T23:34:27.750Z,100359.05
2017-04-14T23:35:28.825Z,100356.17
2017-04-14T23:36:30.038Z,100355.83
2017-04-14T23:37:31.210Z,100353.07
2017-04-14T23:38:32.257Z,100350.45
2017-04-14T23:39:33.481Z,100354.27
2017-04-14T23:40:34.513Z,100352.03
2017-04-14T23:41:36.045Z,100354.09
2017-04-14T23:42:37.864Z,100352.19
2017-04-14T23:43:39.481Z,100354.27
2017-04-14T23:44:40.482Z,100355.50
2017-04-14T23:45:41.698Z,100348.57
2017-04-14T23:46:43.255Z,100351.73
2017-04-14T23:47:45.088Z,100354.06
2017-04-14T23:48:46.661Z,100351.02
2017-04-14T23:49:48.661Z,100354.49
2017-04-14T23:50:50.012Z,100354.06
2017-04-14T23:51:51.361Z,100351.47
2017-04-14T23:52:52.565Z,100350.16
2017-04-14T23:53:53.725Z,100349.14
2017-04-14T23:54:55.275Z,100348.73
2017-04-14T23:55:56.730Z,100348.90
2017-04-14T23:56:58.633Z,100347.64
2017-04-14T23:58:00.037Z,100354.20
2017-04-14T23:59:01.184Z,100352.83
